Riverlea, Ohio
Current Conditions -  °F | °C
As of 8:37 PM on Thursday 27 Nov 2014 (Local Time) from KOSU Reporting Station
Overcast Overcast  
Wind Chill: 19°   Ceiling: 3600
Heat Index: 30°   Visibility: 10mi
Dew Point: 21°   Wind: 15mph
Humidity: 69%   Direction: 270°W
Pressure: 30.3"   Gusts: 22mph
Location:  40.0994°N, 83.0166°W
Report Text: KOSU 280137Z 27013G19KT 10SM FEW026 OVC036 M01/M06 A3030 RMK AO2 T10111061
Loading
Personal Weather Stations






























Interactive Weather Map New forecast layout! Learn more

10-Day Weather Forecast

Advertisements
Track Severe Weather on mobile